Airfield :
LOGIN :

Register | Disclaimer

   EN    FR    IT 

 










Legend :    VFR   Marginal VFR   IFR   Intensive IFR   Very Intensive IFR
Visi :
Ceiling :
>= 8 km
>= 3000ft
5 to 8 km
1000 to 3000 ft
1500m to 5 km
500 to 1000 ft
800 to 1500m
200 to 500 ft
< 800m
< 200 ft
Symbols :   Thunderstorms  Fog  Heavy snow  Heavy precipitations  Wind > 20 kt
SIGMETs :     Misc.  Thunderstorms  Icing  Turbulence  Mountain Waves  Volcanic Ashes







- Airport Elevation : 59 ft
- IATA code : TSF


LIPH - Treviso

CURRENT METAR :
  • 161720Z 19004KT CAVOK 29/14 Q1014

EXPIRED METARs :
  • 161650Z 15005KT CAVOK 29/15 Q1014
  • 161620Z 12004KT CAVOK 30/12 Q1014
  • 161550Z 14003KT 100V220 CAVOK 31/13 Q1014
  • 161520Z 07006KT 030V120 CAVOK 31/12 Q1014
  • 161450Z 11004KT 070V170 CAVOK 31/12 Q1014
  • 161420Z 01003KT 310V100 CAVOK 31/12 Q1015

TAF TAF LIPH
Valid from the 16 at 18:00 until the 17 at 18:00 UTC


161700Z 1618/1718 06007KT 9999 SCT030
No reported NOTAMs for that airfield.



MET'MAP, your aeronautical weather chart ! - Copyright ORBIFLY December 2007 - Disclaimer

ORBIFLY MET'MAP TEAM :

Programming & Development : Alexandra Zaïnal
Concept & Development : Baudouin d'Aumeries
Co-Development & Prog : Marc-Olivier Méhu
Technical & hardware support : Manuel Goepfert

Contact : metmap@orbifly.com




SOURCES & CREDITS :

   NOAA